createdAt,value
2023-01-10T00:02:12.888Z,5.89
2023-01-10T00:04:41.202Z,5.87
2023-01-10T00:07:10.097Z,5.89
2023-01-10T00:09:39.663Z,5.66
2023-01-10T00:12:46.638Z,5.56
2023-01-10T00:15:14.934Z,5.85
2023-01-10T00:17:42.960Z,5.58
2023-01-10T00:20:12.300Z,5.87
2023-01-10T00:22:40.771Z,5.92
2023-01-10T00:25:09.655Z,5.99
2023-01-10T00:27:37.928Z,6.00
2023-01-10T00:30:14.101Z,6.02
2023-01-10T00:32:44.166Z,6.03
2023-01-10T00:35:13.042Z,6.07
2023-01-10T00:37:41.494Z,6.02
2023-01-10T00:40:12.817Z,5.96
2023-01-10T00:43:00.203Z,6.00
2023-01-10T00:45:28.484Z,6.01
2023-01-10T00:47:56.706Z,5.93
2023-01-10T00:50:24.656Z,5.92
2023-01-10T00:52:53.415Z,5.61
2023-01-10T00:55:21.773Z,5.93
2023-01-10T00:57:49.834Z,5.90
2023-01-10T01:00:18.218Z,5.89
2023-01-10T01:02:46.457Z,5.85
2023-01-10T01:05:14.462Z,5.77
2023-01-10T01:07:42.468Z,5.67
2023-01-10T01:10:28.715Z,5.72
2023-01-10T01:13:05.808Z,5.71
2023-01-10T01:15:35.360Z,5.71
2023-01-10T01:18:04.597Z,5.66
2023-01-10T01:20:33.319Z,5.71
2023-01-10T01:23:01.565Z,5.56
2023-01-10T01:25:29.592Z,5.59
2023-01-10T01:27:57.698Z,5.82
2023-01-10T01:30:26.036Z,5.85
2023-01-10T01:32:54.062Z,5.87
2023-01-10T01:35:22.479Z,5.95
2023-01-10T01:37:51.030Z,5.98
2023-01-10T01:40:22.744Z,5.69
2023-01-10T01:42:56.003Z,5.94
2023-01-10T01:45:24.102Z,6.04
2023-01-10T01:48:16.191Z,6.05
2023-01-10T01:51:07.881Z,5.66
2023-01-10T01:53:51.201Z,5.87
2023-01-10T01:56:33.048Z,5.50
2023-01-10T01:59:20.824Z,6.01
2023-01-10T02:01:55.781Z,5.88
2023-01-10T02:04:48.901Z,5.74
2023-01-10T02:07:17.938Z,6.06
2023-01-10T02:10:00.269Z,6.12
2023-01-10T02:12:32.154Z,6.12
2023-01-10T02:15:00.571Z,6.15
2023-01-10T02:17:29.127Z,5.84
2023-01-10T02:20:09.775Z,5.95
2023-01-10T02:23:14.879Z,6.11
2023-01-10T02:26:16.542Z,6.15
2023-01-10T02:29:12.199Z,6.16
2023-01-10T02:32:17.912Z,6.11
2023-01-10T02:35:20.557Z,6.10
2023-01-10T02:37:51.781Z,6.10
2023-01-10T02:40:37.396Z,5.98
2023-01-10T02:43:18.743Z,6.01
2023-01-10T02:45:51.023Z,5.99
2023-01-10T02:48:19.733Z,5.77
2023-01-10T02:51:15.862Z,6.02
2023-01-10T02:54:18.803Z,6.08
2023-01-10T02:56:58.890Z,6.10
2023-01-10T02:59:57.533Z,6.04
2023-01-10T03:02:38.478Z,6.03
2023-01-10T03:05:22.599Z,5.98
2023-01-10T03:07:56.546Z,5.93
2023-01-10T03:11:00.881Z,5.79
2023-01-10T03:13:52.478Z,5.76
2023-01-10T03:16:29.915Z,5.76
2023-01-10T03:19:23.039Z,5.82
2023-01-10T03:21:57.600Z,5.65
2023-01-10T03:24:39.019Z,5.58
2023-01-10T03:27:19.342Z,5.63
2023-01-10T03:29:55.127Z,5.97
2023-01-10T03:32:28.472Z,6.02
2023-01-10T03:34:58.799Z,5.98
2023-01-10T03:37:34.780Z,6.03
2023-01-10T03:40:39.186Z,5.99
2023-01-10T03:44:00.209Z,6.01
2023-01-10T03:47:20.094Z,5.99
2023-01-10T03:49:54.613Z,6.02
2023-01-10T03:52:24.097Z,5.70
2023-01-10T03:54:54.152Z,5.97
2023-01-10T03:57:24.360Z,6.00
2023-01-10T03:59:58.570Z,5.90
2023-01-10T04:02:32.391Z,5.77
2023-01-10T04:05:00.385Z,5.04
2023-01-10T04:07:28.642Z,5.95
2023-01-10T04:09:56.968Z,5.96
2023-01-10T04:12:25.001Z,5.94
2023-01-10T04:14:52.870Z,5.92
2023-01-10T04:17:21.120Z,5.87
2023-01-10T04:19:49.479Z,5.52
2023-01-10T04:22:17.484Z,5.75
2023-01-10T04:24:47.397Z,4.91
2023-01-10T04:27:15.383Z,5.58
2023-01-10T04:29:43.348Z,5.57
2023-01-10T04:32:11.518Z,5.58
2023-01-10T04:34:39.571Z,5.46
2023-01-10T04:37:07.474Z,5.63
2023-01-10T04:39:36.210Z,5.41
2023-01-10T04:42:04.514Z,5.60
2023-01-10T04:44:32.818Z,5.49
2023-01-10T04:47:01.084Z,5.53
2023-01-10T04:49:29.095Z,5.33
2023-01-10T04:51:57.180Z,5.36
2023-01-10T04:54:25.702Z,5.58
2023-01-10T04:56:53.683Z,5.59
2023-01-10T04:59:21.542Z,5.54
2023-01-10T05:01:50.096Z,5.59
2023-01-10T05:04:20.725Z,5.58
2023-01-10T05:06:49.559Z,5.24
2023-01-10T05:09:17.912Z,5.45
2023-01-10T05:11:46.143Z,5.48
2023-01-10T05:14:14.042Z,5.42
2023-01-10T05:16:43.225Z,5.44
2023-01-10T05:19:12.417Z,5.36
2023-01-10T05:21:40.739Z,5.36
2023-01-10T05:24:10.278Z,5.29
2023-01-10T05:26:38.429Z,5.26
2023-01-10T05:29:06.382Z,4.99
2023-01-10T05:31:34.802Z,5.13
2023-01-10T05:34:03.015Z,4.92
2023-01-10T05:36:30.951Z,5.13
2023-01-10T05:38:59.004Z,5.09
2023-01-10T05:41:27.194Z,4.89
2023-01-10T05:43:55.129Z,5.04
2023-01-10T05:46:23.862Z,4.81
2023-01-10T05:48:53.480Z,5.12
2023-01-10T05:51:21.347Z,4.83
2023-01-10T05:53:50.433Z,5.13
2023-01-10T05:56:19.022Z,5.02
2023-01-10T05:58:51.383Z,4.93
2023-01-10T06:01:22.259Z,5.11
2023-01-10T06:03:50.192Z,5.14
2023-01-10T06:06:18.129Z,5.11
2023-01-10T06:08:46.263Z,5.21
2023-01-10T06:11:14.195Z,4.50
2023-01-10T06:13:42.211Z,5.20
2023-01-10T06:16:13.933Z,5.20
2023-01-10T06:18:41.976Z,5.17
2023-01-10T06:21:10.209Z,5.20
2023-01-10T06:23:39.747Z,5.17
2023-01-10T06:26:08.782Z,5.20
2023-01-10T06:28:36.954Z,4.90
2023-01-10T06:31:05.462Z,5.20
2023-01-10T06:33:34.120Z,5.05
2023-01-10T06:36:02.897Z,5.21
2023-01-10T06:38:31.146Z,4.92
2023-01-10T06:41:13.186Z,5.20
2023-01-10T06:43:43.622Z,5.24
2023-01-10T06:46:13.638Z,5.23
2023-01-10T06:48:44.111Z,5.23
2023-01-10T06:51:14.117Z,5.24
2023-01-10T06:53:43.660Z,5.00
2023-01-10T06:56:11.995Z,5.25
2023-01-10T06:58:40.432Z,5.21
2023-01-10T07:01:15.668Z,5.04
2023-01-10T07:03:43.993Z,5.00
2023-01-10T07:06:12.477Z,4.94
2023-01-10T07:08:46.986Z,5.29
2023-01-10T07:11:17.823Z,5.28
2023-01-10T07:13:46.113Z,5.23
2023-01-10T07:16:16.694Z,5.01
2023-01-10T07:18:45.075Z,5.14
2023-01-10T07:21:13.806Z,5.03
2023-01-10T07:23:42.882Z,5.21
2023-01-10T07:26:17.703Z,5.34
2023-01-10T07:28:51.093Z,5.06
2023-01-10T07:31:21.223Z,5.03
2023-01-10T07:33:50.808Z,5.34
2023-01-10T07:36:20.180Z,4.97
2023-01-10T07:38:48.495Z,5.30
2023-01-10T07:41:16.747Z,5.27
2023-01-10T07:43:44.816Z,5.35
2023-01-10T07:46:13.138Z,5.31
2023-01-10T07:48:42.163Z,5.12
2023-01-10T07:51:10.814Z,5.33
2023-01-10T07:53:39.387Z,5.16
2023-01-10T07:56:08.517Z,4.76
2023-01-10T07:58:37.047Z,4.91
2023-01-10T08:01:07.093Z,4.99
2023-01-10T08:03:36.126Z,5.04
2023-01-10T08:06:10.213Z,5.29
2023-01-10T08:08:39.423Z,5.17
2023-01-10T08:11:08.041Z,5.27
2023-01-10T08:13:36.737Z,5.07
2023-01-10T08:16:07.629Z,5.17
2023-01-10T08:18:39.727Z,5.25
2023-01-10T08:21:07.946Z,5.26
2023-01-10T08:23:39.144Z,5.34
2023-01-10T08:26:07.818Z,5.12
2023-01-10T08:28:36.211Z,5.44
2023-01-10T08:31:09.938Z,5.23
2023-01-10T08:33:40.485Z,5.39
2023-01-10T08:36:20.198Z,5.23
2023-01-10T08:38:50.932Z,5.38
2023-01-10T08:41:19.093Z,5.47
2023-01-10T08:43:53.100Z,5.46
2023-01-10T08:46:21.195Z,5.47
2023-01-10T08:48:50.568Z,5.40
2023-01-10T08:51:19.606Z,5.41
2023-01-10T08:53:47.650Z,5.30
2023-01-10T08:56:15.687Z,5.45
2023-01-10T08:58:44.433Z,5.44
2023-01-10T09:01:13.834Z,4.95
2023-01-10T09:03:42.029Z,5.14
2023-01-10T09:06:11.132Z,5.44
2023-01-10T09:08:39.340Z,5.47
2023-01-10T09:11:07.500Z,5.51
2023-01-10T09:13:35.740Z,5.47
2023-01-10T09:16:04.468Z,5.23
2023-01-10T09:18:33.346Z,5.48
2023-01-10T09:21:03.203Z,5.53
2023-01-10T09:23:31.936Z,5.17
2023-01-10T09:26:01.623Z,5.33
2023-01-10T09:28:30.027Z,4.80
2023-01-10T09:30:58.076Z,5.07
2023-01-10T09:33:28.057Z,5.56
2023-01-10T09:35:59.381Z,5.58
2023-01-10T09:38:27.378Z,5.68
2023-01-10T09:41:18.320Z,5.39
2023-01-10T09:44:24.331Z,5.39
2023-01-10T09:46:58.609Z,5.77
2023-01-10T09:49:52.598Z,5.77
2023-01-10T09:52:35.028Z,5.78
2023-01-10T09:55:19.276Z,5.62
2023-01-10T09:57:49.646Z,5.48
2023-01-10T10:00:23.355Z,5.80
2023-01-10T10:02:55.963Z,5.74
2023-01-10T10:05:27.469Z,5.74
2023-01-10T10:08:00.781Z,5.75
2023-01-10T10:11:21.034Z,5.74
2023-01-10T10:14:14.019Z,5.79
2023-01-10T10:17:13.403Z,5.83
2023-01-10T10:20:20.206Z,5.70
2023-01-10T10:23:34.400Z,5.79
2023-01-10T10:26:21.375Z,5.84
2023-01-10T10:29:21.349Z,5.87
2023-01-10T10:32:21.999Z,5.63
2023-01-10T10:35:42.375Z,5.85
2023-01-10T10:38:31.455Z,5.92
2023-01-10T10:41:01.770Z,5.84
2023-01-10T10:43:38.794Z,5.41
2023-01-10T10:46:20.155Z,5.57
2023-01-10T10:49:41.880Z,5.45
2023-01-10T10:52:22.740Z,5.84
2023-01-10T10:54:53.284Z,5.91
2023-01-10T10:57:29.112Z,5.58
2023-01-10T10:59:59.482Z,5.90
2023-01-10T11:02:39.369Z,5.81
2023-01-10T11:05:36.123Z,5.77
2023-01-10T11:08:14.657Z,5.73
2023-01-10T11:10:48.583Z,5.91
2023-01-10T11:13:34.767Z,5.95
2023-01-10T11:16:06.708Z,5.68
2023-01-10T11:18:35.315Z,5.95
2023-01-10T11:21:13.905Z,5.95
2023-01-10T11:23:52.851Z,5.96
2023-01-10T11:26:24.253Z,5.65
2023-01-10T11:29:05.838Z,5.85
2023-01-10T11:31:35.972Z,5.86
2023-01-10T11:34:20.932Z,5.79
2023-01-10T11:37:01.107Z,5.92
2023-01-10T11:39:31.527Z,5.95
2023-01-10T11:42:25.358Z,5.85
2023-01-10T11:44:53.807Z,5.87
2023-01-10T11:47:22.724Z,5.85
2023-01-10T11:49:52.004Z,5.95
2023-01-10T11:52:27.482Z,5.90
2023-01-10T11:55:00.846Z,5.65
2023-01-10T11:57:32.286Z,5.98
2023-01-10T12:00:10.046Z,5.68
2023-01-10T12:02:46.196Z,5.72
2023-01-10T12:05:21.808Z,5.49
2023-01-10T12:08:09.906Z,5.96
2023-01-10T12:10:38.089Z,5.95
2023-01-10T12:13:17.311Z,6.00
2023-01-10T12:15:47.208Z,5.97
2023-01-10T12:18:18.011Z,5.63
2023-01-10T12:20:52.802Z,5.73
2023-01-10T12:23:25.327Z,5.77
2023-01-10T12:26:10.740Z,6.03
2023-01-10T12:28:54.373Z,5.51
2023-01-10T12:31:23.900Z,5.85
2023-01-10T12:34:04.401Z,5.56
2023-01-10T12:37:27.720Z,5.71
2023-01-10T12:40:36.154Z,6.01
2023-01-10T12:43:32.186Z,5.68
2023-01-10T12:47:06.660Z,5.96
2023-01-10T12:49:49.677Z,5.90
2023-01-10T12:52:45.876Z,5.85
2023-01-10T12:55:23.867Z,5.89
2023-01-10T12:57:58.166Z,5.85
2023-01-10T13:00:48.566Z,5.87
2023-01-10T13:03:24.951Z,5.59
2023-01-10T13:05:54.530Z,5.79
2023-01-10T13:08:28.458Z,5.61
2023-01-10T13:10:59.738Z,5.60
2023-01-10T13:13:52.307Z,5.87
2023-01-10T13:16:56.605Z,5.54
2023-01-10T13:19:28.284Z,5.88
2023-01-10T13:22:23.784Z,5.57
2023-01-10T13:25:01.993Z,5.66
2023-01-10T13:27:34.530Z,5.80
2023-01-10T13:30:25.236Z,5.58
2023-01-10T13:33:07.977Z,5.79
2023-01-10T13:35:43.866Z,5.67
2023-01-10T13:38:44.388Z,5.78
2023-01-10T13:41:33.053Z,5.76
2023-01-10T13:44:03.373Z,5.76
2023-01-10T13:46:31.658Z,5.53
2023-01-10T13:49:03.921Z,5.52
2023-01-10T13:51:32.992Z,5.71
2023-01-10T13:54:18.138Z,5.34
2023-01-10T13:56:46.976Z,5.66
2023-01-10T14:00:20.487Z,5.60
2023-01-10T14:02:49.212Z,5.52
2023-01-10T14:05:21.349Z,5.60
2023-01-10T14:07:55.203Z,5.36
2023-01-10T14:10:33.247Z,5.55
2023-01-10T14:13:10.160Z,5.53
2023-01-10T14:15:43.453Z,5.45
2023-01-10T14:18:22.396Z,5.44
2023-01-10T14:21:10.233Z,5.45
2023-01-10T14:23:49.357Z,5.49
2023-01-10T14:26:34.663Z,5.49
2023-01-10T14:29:14.407Z,5.45
2023-01-10T14:31:48.825Z,5.42
2023-01-10T14:34:28.760Z,5.49
2023-01-10T14:37:17.050Z,5.42
2023-01-10T14:39:46.372Z,5.41
2023-01-10T14:42:18.460Z,5.03
2023-01-10T14:45:04.352Z,5.36
2023-01-10T14:47:35.657Z,5.27
2023-01-10T14:50:07.805Z,5.26
2023-01-10T14:52:36.137Z,4.99
2023-01-10T14:55:18.451Z,5.08
2023-01-10T14:58:03.535Z,5.21
2023-01-10T15:00:41.033Z,5.21
2023-01-10T15:03:19.953Z,5.22
2023-01-10T15:05:58.453Z,5.15
2023-01-10T15:08:32.151Z,5.15
2023-01-10T15:11:07.066Z,5.05
2023-01-10T15:13:46.088Z,4.98
2023-01-10T15:16:25.006Z,5.13
2023-01-10T15:18:53.833Z,5.15
2023-01-10T15:21:24.428Z,5.14
2023-01-10T15:23:52.836Z,4.92
2023-01-10T15:26:34.530Z,5.04
2023-01-10T15:29:15.049Z,5.06
2023-01-10T15:31:44.709Z,5.07
2023-01-10T15:34:20.388Z,4.86
2023-01-10T15:36:57.529Z,5.04
2023-01-10T15:39:34.690Z,5.00
2023-01-10T15:42:09.715Z,4.98
2023-01-10T15:44:56.807Z,5.01
2023-01-10T15:47:53.178Z,5.00
2023-01-10T15:50:32.904Z,4.92
2023-01-10T15:53:10.264Z,4.92
2023-01-10T15:56:10.966Z,4.89
2023-01-10T15:58:43.206Z,4.63
2023-01-10T16:01:16.085Z,4.91
2023-01-10T16:04:05.469Z,4.81
2023-01-10T16:06:37.123Z,4.25
2023-01-10T16:09:21.417Z,4.59
2023-01-10T16:12:12.222Z,4.81
2023-01-10T16:14:40.528Z,4.03
2023-01-10T16:17:09.184Z,4.90
2023-01-10T16:19:37.822Z,4.87
2023-01-10T16:22:06.158Z,4.76
2023-01-10T16:24:41.610Z,4.82
2023-01-10T16:27:11.498Z,4.86
2023-01-10T16:29:39.868Z,4.67
2023-01-10T16:32:15.680Z,4.89
2023-01-10T16:34:44.352Z,4.89
2023-01-10T16:37:12.805Z,4.84
2023-01-10T16:39:41.242Z,4.80
2023-01-10T16:42:28.597Z,4.72
2023-01-10T16:44:57.298Z,4.49
2023-01-10T16:47:25.558Z,4.49
2023-01-10T16:49:53.754Z,4.33
2023-01-10T16:52:21.929Z,4.21
2023-01-10T16:54:50.087Z,4.22
2023-01-10T16:57:18.691Z,3.95
2023-01-10T16:59:47.116Z,4.19
2023-01-10T17:02:21.972Z,4.00
2023-01-10T17:04:50.522Z,3.93
2023-01-10T17:07:19.081Z,4.23
2023-01-10T17:09:47.237Z,3.88
2023-01-10T17:12:20.067Z,4.07
2023-01-10T17:14:48.733Z,3.50
2023-01-10T17:17:17.035Z,3.98
2023-01-10T17:19:47.636Z,3.82
2023-01-10T17:22:17.206Z,3.92
2023-01-10T17:24:45.544Z,3.97
2023-01-10T17:27:13.926Z,3.99
2023-01-10T17:29:42.780Z,4.07
2023-01-10T17:32:11.648Z,4.03
2023-01-10T17:34:40.431Z,3.96
2023-01-10T17:37:08.976Z,3.97
2023-01-10T17:39:38.063Z,3.95
2023-01-10T17:42:07.050Z,3.71
2023-01-10T17:44:36.711Z,3.91
2023-01-10T17:47:04.983Z,3.89
2023-01-10T17:49:33.553Z,3.56
2023-01-10T17:52:02.333Z,3.86
2023-01-10T17:54:31.528Z,3.85
2023-01-10T17:56:59.842Z,3.90
2023-01-10T17:59:28.879Z,3.63
2023-01-10T18:01:57.476Z,3.82
2023-01-10T18:04:26.080Z,3.96
2023-01-10T18:06:54.338Z,3.99
2023-01-10T18:09:22.564Z,3.86
2023-01-10T18:11:51.734Z,3.91
2023-01-10T18:14:38.360Z,3.83
2023-01-10T18:17:10.687Z,3.91
2023-01-10T18:19:39.338Z,3.86
2023-01-10T18:22:27.568Z,3.94
2023-01-10T18:24:58.309Z,3.54
2023-01-10T18:27:28.255Z,3.79
2023-01-10T18:29:56.965Z,3.86
2023-01-10T18:32:26.351Z,3.85
2023-01-10T18:34:55.476Z,3.89
2023-01-10T18:37:24.070Z,3.75
2023-01-10T18:39:53.389Z,3.97
2023-01-10T18:42:21.685Z,3.91
2023-01-10T18:44:50.368Z,3.85
2023-01-10T18:47:18.418Z,3.83
2023-01-10T18:49:47.915Z,3.56
2023-01-10T18:52:17.021Z,3.78
2023-01-10T18:54:47.809Z,3.78
2023-01-10T18:57:16.325Z,3.85
2023-01-10T18:59:44.777Z,3.87
2023-01-10T19:02:16.957Z,3.64
2023-01-10T19:04:46.587Z,3.83
2023-01-10T19:07:15.048Z,3.71
2023-01-10T19:09:43.593Z,3.92
2023-01-10T19:12:12.760Z,3.86
2023-01-10T19:14:41.706Z,3.89
2023-01-10T19:17:18.570Z,3.88
2023-01-10T19:19:46.835Z,3.81
2023-01-10T19:22:15.435Z,3.84
2023-01-10T19:24:44.346Z,3.79
2023-01-10T19:27:13.666Z,3.83
2023-01-10T19:29:46.564Z,3.49
2023-01-10T19:32:15.350Z,3.85
2023-01-10T19:34:46.304Z,3.83
2023-01-10T19:37:15.241Z,3.82
2023-01-10T19:39:44.803Z,3.75
2023-01-10T19:42:13.349Z,3.83
2023-01-10T19:44:45.018Z,3.60
2023-01-10T19:47:13.807Z,3.54
2023-01-10T19:49:43.252Z,3.44
2023-01-10T19:52:12.636Z,3.59
2023-01-10T19:54:41.977Z,3.32
2023-01-10T19:57:11.048Z,3.34
2023-01-10T19:59:42.256Z,3.40
2023-01-10T20:02:16.938Z,3.37
2023-01-10T20:04:50.088Z,3.66
2023-01-10T20:07:19.004Z,3.33
2023-01-10T20:09:47.764Z,3.56
2023-01-10T20:12:17.733Z,3.58
2023-01-10T20:14:46.696Z,3.55
2023-01-10T20:17:15.348Z,3.61
2023-01-10T20:19:44.033Z,3.63
2023-01-10T20:22:12.799Z,3.54
2023-01-10T20:24:41.414Z,3.70
2023-01-10T20:27:10.839Z,3.67
2023-01-10T20:29:43.000Z,3.61
2023-01-10T20:32:14.221Z,3.38
2023-01-10T20:34:44.916Z,3.36
2023-01-10T20:37:14.305Z,3.68
2023-01-10T20:39:42.788Z,3.56
2023-01-10T20:42:11.128Z,3.69
2023-01-10T20:44:40.555Z,3.42
2023-01-10T20:47:09.235Z,3.41
2023-01-10T20:49:38.004Z,3.64
2023-01-10T20:52:06.386Z,3.68
2023-01-10T20:54:36.603Z,3.68
2023-01-10T20:57:05.783Z,3.69
2023-01-10T20:59:34.578Z,3.74
2023-01-10T21:02:04.041Z,3.58
2023-01-10T21:04:34.071Z,3.77
2023-01-10T21:07:02.995Z,3.74
2023-01-10T21:09:32.371Z,3.72
2023-01-10T21:12:21.487Z,3.80
2023-01-10T21:14:54.806Z,3.70
2023-01-10T21:17:23.632Z,3.64
2023-01-10T21:19:52.343Z,3.64
2023-01-10T21:22:21.473Z,3.41
2023-01-10T21:24:50.270Z,3.68
2023-01-10T21:27:22.237Z,3.67
2023-01-10T21:29:51.082Z,3.63
2023-01-10T21:32:20.402Z,3.69
2023-01-10T21:34:50.345Z,3.77
2023-01-10T21:37:20.084Z,3.62
2023-01-10T21:39:48.915Z,3.63
2023-01-10T21:42:39.218Z,3.70
2023-01-10T21:45:09.238Z,3.75
2023-01-10T21:47:39.858Z,3.70
2023-01-10T21:50:13.033Z,3.79
2023-01-10T21:52:42.687Z,3.86
2023-01-10T21:55:15.538Z,3.77
2023-01-10T21:57:44.366Z,3.50
2023-01-10T22:00:13.937Z,3.54
2023-01-10T22:02:42.799Z,3.80
2023-01-10T22:05:11.892Z,3.78
2023-01-10T22:07:41.990Z,3.34
2023-01-10T22:10:14.673Z,3.66
2023-01-10T22:12:43.281Z,3.70
2023-01-10T22:15:12.938Z,3.48
2023-01-10T22:17:41.691Z,3.54
2023-01-10T22:20:11.079Z,3.77
2023-01-10T22:22:39.898Z,3.84
2023-01-10T22:25:10.633Z,3.88
2023-01-10T22:27:39.907Z,3.83
2023-01-10T22:30:10.776Z,3.58
2023-01-10T22:32:39.937Z,3.87
2023-01-10T22:35:08.768Z,3.85
2023-01-10T22:37:37.496Z,3.78
2023-01-10T22:40:08.871Z,3.49
2023-01-10T22:42:37.657Z,3.71
2023-01-10T22:45:06.550Z,3.54
2023-01-10T22:47:35.082Z,3.69
2023-01-10T22:50:03.710Z,3.59
2023-01-10T22:52:33.197Z,3.44
2023-01-10T22:55:02.894Z,3.78
2023-01-10T22:57:33.190Z,3.70
2023-01-10T23:00:02.964Z,3.76
2023-01-10T23:02:32.212Z,3.80
2023-01-10T23:05:00.885Z,3.74
2023-01-10T23:07:29.733Z,3.74
2023-01-10T23:09:59.079Z,3.02
2023-01-10T23:12:28.122Z,3.77
2023-01-10T23:14:56.742Z,3.73
2023-01-10T23:17:24.884Z,3.73
2023-01-10T23:19:53.033Z,3.42
2023-01-10T23:22:21.588Z,3.63
2023-01-10T23:24:49.824Z,3.75
2023-01-10T23:27:19.266Z,3.82
2023-01-10T23:29:47.772Z,3.84
2023-01-10T23:32:15.870Z,3.88
2023-01-10T23:34:44.483Z,3.84
2023-01-10T23:37:12.654Z,3.94
2023-01-10T23:39:40.940Z,3.90
2023-01-10T23:42:10.198Z,3.97
2023-01-10T23:44:38.765Z,3.95
2023-01-10T23:47:11.192Z,3.98
2023-01-10T23:49:39.726Z,3.75
2023-01-10T23:52:07.820Z,3.99
2023-01-10T23:54:36.955Z,4.05
2023-01-10T23:57:05.148Z,4.00
2023-01-10T23:59:33.752Z,3.84
